createdAt,value
2022-09-02T00:00:43.290Z,2.60
2022-09-02T00:03:10.190Z,2.28
2022-09-02T00:05:37.153Z,2.30
2022-09-02T00:08:04.526Z,2.60
2022-09-02T00:10:31.946Z,2.15
2022-09-02T00:12:58.684Z,2.10
2022-09-02T00:15:26.182Z,2.50
2022-09-02T00:17:52.999Z,2.20
2022-09-02T00:20:19.954Z,2.42
2022-09-02T00:22:46.766Z,2.25
2022-09-02T00:25:13.440Z,2.08
2022-09-02T00:27:40.154Z,2.35
2022-09-02T00:30:07.258Z,2.72
2022-09-02T00:32:34.066Z,2.22
2022-09-02T00:35:01.563Z,2.47
2022-09-02T00:37:28.627Z,2.15
2022-09-02T00:39:55.555Z,2.38
2022-09-02T00:42:22.766Z,2.20
2022-09-02T00:44:50.246Z,2.35
2022-09-02T00:47:17.790Z,2.33
2022-09-02T00:49:47.845Z,2.55
2022-09-02T00:52:17.319Z,2.10
2022-09-02T00:54:46.912Z,2.55
2022-09-02T00:57:19.387Z,2.35
2022-09-02T00:59:46.072Z,2.20
2022-09-02T01:02:13.682Z,2.60
2022-09-02T01:04:43.191Z,2.28
2022-09-02T01:07:09.930Z,2.38
2022-09-02T01:09:38.012Z,2.28
2022-09-02T01:12:05.263Z,2.30
2022-09-02T01:14:32.058Z,2.13
2022-09-02T01:17:00.120Z,2.63
2022-09-02T01:19:35.205Z,2.25
2022-09-02T01:22:02.222Z,2.45
2022-09-02T01:24:30.988Z,2.17
2022-09-02T01:26:58.851Z,2.33
2022-09-02T01:29:26.269Z,2.00
2022-09-02T01:31:53.785Z,2.63
2022-09-02T01:34:21.104Z,2.22
2022-09-02T01:36:47.892Z,2.60
2022-09-02T01:39:15.349Z,2.13
2022-09-02T01:41:43.015Z,2.20
2022-09-02T01:44:10.586Z,2.42
2022-09-02T01:46:37.741Z,2.53
2022-09-02T01:49:04.625Z,2.40
2022-09-02T01:51:31.409Z,2.10
2022-09-02T01:53:59.043Z,1.90
2022-09-02T01:56:25.943Z,2.15
2022-09-02T01:58:52.803Z,2.10
2022-09-02T02:01:20.047Z,1.90
2022-09-02T02:03:47.798Z,2.10
2022-09-02T02:06:16.845Z,1.92
2022-09-02T02:08:44.284Z,2.42
2022-09-02T02:11:10.999Z,1.83
2022-09-02T02:13:37.758Z,2.22
2022-09-02T02:16:04.879Z,2.30
2022-09-02T02:18:31.675Z,2.05
2022-09-02T02:20:59.107Z,2.00
2022-09-02T02:23:25.771Z,2.00
2022-09-02T02:25:52.737Z,2.03
2022-09-02T02:28:19.421Z,2.25
2022-09-02T02:30:47.235Z,2.10
2022-09-02T02:33:14.694Z,2.03
2022-09-02T02:35:41.701Z,2.05
2022-09-02T02:38:10.263Z,2.67
2022-09-02T02:40:41.260Z,2.55
2022-09-02T02:43:08.466Z,2.40
2022-09-02T02:45:35.321Z,1.90
2022-09-02T02:48:02.565Z,2.45
2022-09-02T02:50:31.265Z,2.10
2022-09-02T02:52:57.989Z,2.17
2022-09-02T02:55:25.687Z,1.83
2022-09-02T02:57:52.549Z,2.00
2022-09-02T03:00:21.638Z,2.20
2022-09-02T03:02:49.816Z,2.33
2022-09-02T03:05:19.992Z,2.08
2022-09-02T03:07:47.238Z,2.20
2022-09-02T03:10:15.546Z,2.08
2022-09-02T03:12:46.201Z,2.15
2022-09-02T03:15:14.148Z,2.40
2022-09-02T03:17:41.487Z,1.90
2022-09-02T03:20:08.390Z,2.38
2022-09-02T03:22:40.191Z,2.65
2022-09-02T03:25:08.720Z,2.33
2022-09-02T03:27:37.335Z,2.25
2022-09-02T03:30:05.823Z,2.35
2022-09-02T03:32:32.543Z,2.15
2022-09-02T03:35:01.142Z,1.92
2022-09-02T03:37:28.637Z,1.85
2022-09-02T03:39:56.301Z,2.10
2022-09-02T03:42:23.425Z,1.98
2022-09-02T03:44:51.327Z,1.95
2022-09-02T03:47:21.619Z,2.00
2022-09-02T03:49:52.701Z,2.20
2022-09-02T03:52:19.433Z,2.88
2022-09-02T03:54:46.591Z,2.10
2022-09-02T03:57:13.675Z,2.00
2022-09-02T03:59:40.529Z,1.92
2022-09-02T04:02:07.955Z,1.70
2022-09-02T04:04:35.300Z,2.00
2022-09-02T04:07:01.991Z,2.38
2022-09-02T04:09:28.712Z,1.70
2022-09-02T04:11:55.562Z,1.83
2022-09-02T04:14:22.242Z,2.15
2022-09-02T04:16:49.557Z,1.98
2022-09-02T04:19:16.603Z,2.08
2022-09-02T04:21:44.043Z,2.00
2022-09-02T04:24:12.698Z,2.22
2022-09-02T04:26:45.118Z,2.25
2022-09-02T04:29:14.530Z,2.25
2022-09-02T04:31:42.756Z,2.35
2022-09-02T04:34:10.441Z,2.25
2022-09-02T04:36:37.214Z,2.50
2022-09-02T04:39:09.345Z,2.10
2022-09-02T04:41:37.544Z,2.35
2022-09-02T04:44:07.674Z,2.03
2022-09-02T04:46:38.300Z,1.95
2022-09-02T04:49:08.808Z,2.00
2022-09-02T04:51:37.305Z,2.58
2022-09-02T04:54:05.485Z,2.50
2022-09-02T04:56:35.061Z,2.35
2022-09-02T04:59:04.150Z,1.98
2022-09-02T05:01:33.078Z,2.53
2022-09-02T05:04:07.278Z,2.30
2022-09-02T05:06:39.576Z,2.65
2022-09-02T05:09:14.053Z,2.30
2022-09-02T05:11:41.549Z,2.42
2022-09-02T05:14:08.547Z,2.30
2022-09-02T05:16:38.215Z,2.38
2022-09-02T05:19:10.168Z,2.10
2022-09-02T05:21:41.739Z,2.17
2022-09-02T05:24:10.142Z,2.88
2022-09-02T05:26:38.521Z,2.30
2022-09-02T05:29:09.785Z,2.42
2022-09-02T05:31:40.362Z,2.40
2022-09-02T05:34:07.679Z,2.65
2022-09-02T05:36:34.717Z,2.20
2022-09-02T05:39:01.676Z,3.03
2022-09-02T05:41:28.796Z,2.35
2022-09-02T05:44:01.472Z,3.67
2022-09-02T05:46:31.130Z,2.60
2022-09-02T05:49:09.201Z,2.45
2022-09-02T05:51:43.221Z,2.40
2022-09-02T05:54:12.113Z,3.00
2022-09-02T05:56:40.398Z,2.67
2022-09-02T05:59:13.596Z,2.60
2022-09-02T06:01:40.986Z,3.10
2022-09-02T06:04:07.703Z,2.92
2022-09-02T06:06:38.527Z,3.53
2022-09-02T06:09:08.436Z,3.40
2022-09-02T06:11:36.902Z,3.15
2022-09-02T06:14:05.819Z,3.15
2022-09-02T06:16:35.514Z,3.30
2022-09-02T06:19:04.096Z,2.90
2022-09-02T06:21:31.726Z,3.15
2022-09-02T06:23:59.569Z,3.10
2022-09-02T06:26:26.923Z,2.88
2022-09-02T06:28:55.504Z,2.95
2022-09-02T06:31:23.083Z,3.28
2022-09-02T06:33:54.908Z,3.10
2022-09-02T06:36:28.214Z,3.00
2022-09-02T06:38:57.212Z,2.70
2022-09-02T06:41:29.896Z,2.80
2022-09-02T06:44:00.297Z,2.95
2022-09-02T06:46:31.995Z,2.92
2022-09-02T06:49:01.614Z,4.25
2022-09-02T06:51:30.274Z,2.88
2022-09-02T06:53:58.819Z,3.28
2022-09-02T06:56:30.800Z,3.08
2022-09-02T06:58:58.028Z,3.22
2022-09-02T07:01:41.219Z,2.80
2022-09-02T07:04:27.136Z,2.58
2022-09-02T07:06:55.793Z,2.75
2022-09-02T07:09:33.806Z,2.78
2022-09-02T07:12:08.562Z,2.83
2022-09-02T07:14:41.437Z,2.47
2022-09-02T07:17:10.025Z,2.80
2022-09-02T07:19:37.815Z,3.00
2022-09-02T07:22:05.545Z,3.70
2022-09-02T07:24:33.522Z,2.67
2022-09-02T07:27:00.471Z,3.03
2022-09-02T07:29:27.516Z,2.70
2022-09-02T07:31:54.293Z,3.03
2022-09-02T07:34:21.613Z,2.83
2022-09-02T07:36:49.509Z,2.65
2022-09-02T07:39:19.818Z,2.60
2022-09-02T07:41:49.321Z,3.40
2022-09-02T07:44:17.640Z,3.17
2022-09-02T07:46:44.614Z,3.13
2022-09-02T07:49:16.422Z,3.03
2022-09-02T07:51:46.550Z,3.10
2022-09-02T07:54:13.352Z,3.22
2022-09-02T07:56:40.890Z,3.50
2022-09-02T07:59:08.176Z,2.85
2022-09-02T08:01:35.123Z,3.10
2022-09-02T08:04:06.130Z,3.30
2022-09-02T08:06:36.136Z,3.35
2022-09-02T08:09:04.255Z,4.18
2022-09-02T08:11:32.525Z,3.70
2022-09-02T08:14:00.798Z,2.85
2022-09-02T08:16:29.120Z,3.60
2022-09-02T08:18:55.989Z,3.10
2022-09-02T08:21:22.760Z,3.45
2022-09-02T08:23:51.373Z,3.15
2022-09-02T08:26:18.941Z,2.95
2022-09-02T08:28:45.740Z,3.03
2022-09-02T08:31:12.493Z,3.05
2022-09-02T08:33:39.066Z,2.78
2022-09-02T08:36:08.411Z,3.15
2022-09-02T08:38:35.773Z,3.10
2022-09-02T08:41:02.542Z,2.58
2022-09-02T08:43:42.479Z,3.05
2022-09-02T08:46:12.126Z,3.03
2022-09-02T08:48:42.035Z,2.63
2022-09-02T08:51:10.704Z,3.00
2022-09-02T08:53:46.661Z,3.22
2022-09-02T08:56:15.695Z,3.20
2022-09-02T08:58:44.106Z,3.42
2022-09-02T09:01:10.749Z,3.20
2022-09-02T09:03:43.802Z,3.10
2022-09-02T09:06:17.354Z,2.72
2022-09-02T09:08:48.341Z,3.05
2022-09-02T09:11:41.101Z,2.60
2022-09-02T09:14:20.453Z,3.30
2022-09-02T09:16:56.280Z,3.20
2022-09-02T09:19:36.444Z,3.05
2022-09-02T09:22:03.576Z,3.33
2022-09-02T09:24:36.858Z,2.70
2022-09-02T09:27:10.055Z,3.10
2022-09-02T09:29:36.807Z,3.22
2022-09-02T09:32:05.129Z,3.10
2022-09-02T09:34:51.844Z,2.85
2022-09-02T09:37:31.648Z,3.05
2022-09-02T09:40:00.968Z,3.67
2022-09-02T09:42:32.180Z,3.20
2022-09-02T09:44:58.757Z,3.50
2022-09-02T09:47:26.679Z,3.30
2022-09-02T09:49:54.587Z,3.03
2022-09-02T09:52:26.073Z,3.00
2022-09-02T09:55:19.200Z,2.67
2022-09-02T09:57:51.739Z,3.40
2022-09-02T10:00:20.935Z,3.10
2022-09-02T10:02:52.451Z,2.60
2022-09-02T10:05:19.110Z,2.95
2022-09-02T10:07:53.609Z,3.20
2022-09-02T10:10:22.417Z,3.17
2022-09-02T10:12:50.186Z,2.65
2022-09-02T10:15:19.549Z,2.50
2022-09-02T10:17:55.299Z,3.60
2022-09-02T10:20:44.564Z,2.90
2022-09-02T10:23:23.000Z,2.60
2022-09-02T10:25:58.912Z,2.67
2022-09-02T10:28:26.001Z,2.88
2022-09-02T10:31:04.999Z,2.40
2022-09-02T10:33:46.641Z,3.00
2022-09-02T10:36:25.160Z,2.88
2022-09-02T10:38:52.090Z,2.88
2022-09-02T10:41:24.890Z,3.08
2022-09-02T10:44:17.110Z,3.15
2022-09-02T10:46:56.030Z,3.28
2022-09-02T10:49:25.741Z,2.58
2022-09-02T10:52:11.184Z,2.97
2022-09-02T10:54:49.443Z,3.17
2022-09-02T10:57:20.086Z,2.70
2022-09-02T10:59:57.405Z,2.80
2022-09-02T11:02:24.057Z,2.58
2022-09-02T11:05:02.458Z,2.45
2022-09-02T11:07:43.651Z,2.70
2022-09-02T11:10:15.845Z,3.22
2022-09-02T11:12:47.885Z,3.40
2022-09-02T11:15:20.276Z,3.22
2022-09-02T11:17:47.293Z,2.80
2022-09-02T11:20:32.612Z,3.15
2022-09-02T11:23:05.411Z,3.42
2022-09-02T11:25:37.481Z,2.88
2022-09-02T11:28:27.360Z,3.05
2022-09-02T11:31:02.786Z,3.13
2022-09-02T11:33:32.201Z,2.83
2022-09-02T11:35:59.544Z,2.85
2022-09-02T11:38:39.226Z,3.30
2022-09-02T11:41:36.318Z,2.70
2022-09-02T11:44:23.353Z,2.90
2022-09-02T11:47:00.858Z,2.53
2022-09-02T11:49:36.714Z,2.70
2022-09-02T11:52:03.636Z,3.08
2022-09-02T11:54:51.792Z,3.50
2022-09-02T11:57:23.537Z,2.75
2022-09-02T11:59:50.585Z,2.65
2022-09-02T12:02:36.274Z,2.97
2022-09-02T12:05:21.989Z,2.90
2022-09-02T12:07:49.772Z,2.90
2022-09-02T12:10:35.311Z,2.90
2022-09-02T12:13:03.220Z,2.55
2022-09-02T12:15:30.700Z,2.50
2022-09-02T12:17:57.801Z,3.22
2022-09-02T12:20:36.813Z,2.97
2022-09-02T12:23:03.917Z,2.95
2022-09-02T12:25:34.018Z,2.88
2022-09-02T12:28:23.935Z,2.80
2022-09-02T12:31:07.711Z,2.70
2022-09-02T12:33:35.543Z,2.60
2022-09-02T12:36:04.916Z,2.90
2022-09-02T12:38:33.208Z,2.50
2022-09-02T12:41:00.572Z,2.40
2022-09-02T12:43:44.673Z,2.72
2022-09-02T12:46:17.733Z,2.50
2022-09-02T12:49:14.640Z,2.50
2022-09-02T12:51:52.487Z,2.50
2022-09-02T12:54:24.662Z,2.38
2022-09-02T12:56:51.434Z,2.67
2022-09-02T12:59:47.597Z,2.47
2022-09-02T13:02:14.344Z,2.45
2022-09-02T13:04:53.044Z,3.20
2022-09-02T13:07:22.790Z,2.70
2022-09-02T13:09:55.169Z,2.58
2022-09-02T13:12:48.399Z,2.40
2022-09-02T13:15:23.494Z,2.70
2022-09-02T13:17:59.114Z,2.80
2022-09-02T13:20:28.724Z,3.33
2022-09-02T13:23:01.569Z,2.38
2022-09-02T13:25:29.196Z,2.47
2022-09-02T13:28:14.886Z,2.70
2022-09-02T13:31:02.665Z,2.60
2022-09-02T13:33:29.486Z,2.88
2022-09-02T13:35:58.654Z,2.80
2022-09-02T13:38:26.494Z,2.40
2022-09-02T13:40:53.357Z,2.53
2022-09-02T13:43:21.456Z,2.78
2022-09-02T13:45:49.243Z,2.83
2022-09-02T13:48:20.722Z,3.13
2022-09-02T13:50:51.540Z,3.20
2022-09-02T13:56:13.287Z,2.83
2022-09-02T13:58:40.158Z,2.67
2022-09-02T14:01:22.393Z,2.60
2022-09-02T14:03:51.483Z,2.40
2022-09-02T14:06:19.592Z,2.65
2022-09-02T14:08:46.796Z,2.17
2022-09-02T14:11:16.114Z,2.20
2022-09-02T14:13:44.483Z,2.22
2022-09-02T14:16:33.222Z,2.00
2022-09-02T14:19:23.293Z,2.25
2022-09-02T14:21:51.084Z,1.95
2022-09-02T14:24:22.609Z,2.33
2022-09-02T14:26:51.075Z,2.05
2022-09-02T14:29:18.352Z,2.97
2022-09-02T14:31:45.662Z,2.33
2022-09-02T14:34:30.938Z,1.92
2022-09-02T14:36:57.712Z,2.03
2022-09-02T14:39:24.441Z,2.10
2022-09-02T14:41:52.210Z,1.95
2022-09-02T14:44:18.848Z,2.00
2022-09-02T14:46:50.323Z,2.05
2022-09-02T14:49:22.961Z,2.35
2022-09-02T14:51:51.808Z,2.35
2022-09-02T14:54:37.237Z,2.00
2022-09-02T14:57:04.340Z,2.47
2022-09-02T14:59:31.207Z,2.50
2022-09-02T15:01:58.982Z,2.00
2022-09-02T15:04:25.916Z,1.98
2022-09-02T15:06:52.584Z,1.88
2022-09-02T15:09:19.693Z,2.00
2022-09-02T15:11:51.496Z,2.05
2022-09-02T15:14:18.212Z,2.20
2022-09-02T15:16:45.124Z,2.30
2022-09-02T15:19:11.837Z,2.05
2022-09-02T15:21:38.512Z,2.45
2022-09-02T15:24:05.464Z,1.98
2022-09-02T15:26:32.158Z,2.53
2022-09-02T15:28:58.882Z,2.00
2022-09-02T15:31:26.436Z,2.40
2022-09-02T15:33:53.266Z,2.70
2022-09-02T15:36:20.545Z,2.30
2022-09-02T15:38:47.285Z,2.40
2022-09-02T15:41:14.801Z,2.30
2022-09-02T15:43:41.908Z,2.30
2022-09-02T15:46:31.306Z,2.50
2022-09-02T15:49:02.622Z,2.17
2022-09-02T15:51:29.833Z,2.30
2022-09-02T15:54:00.188Z,2.25
2022-09-02T15:56:27.673Z,2.30
2022-09-02T15:59:03.406Z,2.42
2022-09-02T16:01:33.798Z,2.40
2022-09-02T16:04:04.527Z,2.40
2022-09-02T16:06:32.549Z,2.55
2022-09-02T16:08:59.389Z,2.55
2022-09-02T16:11:26.063Z,2.88
2022-09-02T16:13:53.641Z,2.30
2022-09-02T16:16:20.485Z,2.70
2022-09-02T16:18:53.879Z,2.40
2022-09-02T16:21:21.305Z,2.40
2022-09-02T16:23:49.287Z,2.65
2022-09-02T16:26:22.427Z,2.15
2022-09-02T16:28:49.463Z,2.20
2022-09-02T16:31:17.924Z,2.70
2022-09-02T16:33:45.642Z,2.40
2022-09-02T16:36:13.398Z,2.20
2022-09-02T16:38:40.122Z,2.30
2022-09-02T16:41:06.732Z,2.60
2022-09-02T16:43:33.397Z,2.40
2022-09-02T16:46:04.083Z,2.22
2022-09-02T16:48:33.730Z,2.72
2022-09-02T16:51:04.309Z,2.80
2022-09-02T16:53:31.549Z,2.42
2022-09-02T16:55:58.493Z,2.42
2022-09-02T16:58:25.515Z,2.22
2022-09-02T17:00:52.292Z,3.38
2022-09-02T17:03:19.119Z,2.30
2022-09-02T17:05:47.958Z,2.42
2022-09-02T17:08:14.866Z,2.50
2022-09-02T17:10:41.635Z,2.60
2022-09-02T17:13:08.374Z,2.22
2022-09-02T17:15:35.129Z,1.90
2022-09-02T17:18:01.801Z,2.25
2022-09-02T17:20:28.467Z,2.38
2022-09-02T17:22:55.482Z,2.63
2022-09-02T17:25:22.123Z,2.10
2022-09-02T17:27:49.059Z,2.75
2022-09-02T17:30:16.301Z,2.53
2022-09-02T17:32:42.971Z,2.22
2022-09-02T17:35:10.171Z,2.13
2022-09-02T17:37:37.395Z,2.33
2022-09-02T17:40:07.867Z,2.45
2022-09-02T17:42:34.625Z,2.47
2022-09-02T17:45:01.402Z,2.33
2022-09-02T17:47:31.708Z,2.30
2022-09-02T17:49:59.245Z,2.78
2022-09-02T17:52:25.945Z,2.20
2022-09-02T17:54:53.294Z,2.10
2022-09-02T17:57:39.059Z,2.42
2022-09-02T18:00:12.986Z,3.92
2022-09-02T18:02:45.626Z,2.85
2022-09-02T18:05:12.340Z,2.53
2022-09-02T18:07:38.920Z,2.72
2022-09-02T18:10:05.893Z,4.32
2022-09-02T18:12:33.459Z,2.85
2022-09-02T18:15:02.013Z,3.00
2022-09-02T18:17:36.620Z,2.60
2022-09-02T18:20:03.362Z,2.55
2022-09-02T18:22:48.830Z,2.10
2022-09-02T18:25:33.754Z,2.70
2022-09-02T18:28:09.525Z,2.22
2022-09-02T18:30:57.582Z,2.50
2022-09-02T18:33:36.242Z,2.65
2022-09-02T18:36:21.665Z,2.33
2022-09-02T18:39:06.308Z,2.38
2022-09-02T18:41:33.040Z,2.30
2022-09-02T18:44:07.751Z,2.40
2022-09-02T18:46:42.921Z,2.25
2022-09-02T18:49:11.057Z,2.58
2022-09-02T18:51:40.997Z,2.40
2022-09-02T18:54:28.103Z,2.58
2022-09-02T18:56:56.912Z,2.45
2022-09-02T18:59:28.829Z,2.30
2022-09-02T19:01:57.121Z,2.65
2022-09-02T19:04:29.225Z,2.55
2022-09-02T19:07:16.617Z,2.47
2022-09-02T19:09:43.482Z,2.50
2022-09-02T19:12:10.923Z,2.60
2022-09-02T19:14:39.308Z,2.55
2022-09-02T19:17:05.972Z,2.22
2022-09-02T19:19:35.239Z,2.05
2022-09-02T19:22:06.550Z,2.45
2022-09-02T19:24:36.257Z,2.50
2022-09-02T19:27:05.994Z,2.30
2022-09-02T19:29:33.784Z,2.70
2022-09-02T19:32:00.632Z,2.40
2022-09-02T19:34:32.633Z,2.50
2022-09-02T19:36:59.818Z,2.60
2022-09-02T19:39:26.936Z,2.55
2022-09-02T19:41:54.207Z,2.60
2022-09-02T19:44:21.987Z,2.25
2022-09-02T19:47:42.110Z,2.50
2022-09-02T19:49:36.433Z,2.95
2022-09-02T19:52:03.113Z,2.33
2022-09-02T19:54:30.422Z,2.70
2022-09-02T19:56:57.161Z,3.00
2022-09-02T19:59:23.965Z,2.90
2022-09-02T20:01:50.601Z,2.65
2022-09-02T20:04:17.238Z,2.53
2022-09-02T20:06:44.028Z,2.88
2022-09-02T20:09:10.657Z,3.10
2022-09-02T20:11:40.988Z,2.95
2022-09-02T20:14:07.942Z,2.58
2022-09-02T20:16:34.736Z,2.67
2022-09-02T20:19:01.471Z,2.60
2022-09-02T20:21:42.612Z,2.88
2022-09-02T20:24:10.466Z,3.00
2022-09-02T20:26:56.519Z,2.90
2022-09-02T20:29:23.831Z,2.58
2022-09-02T20:31:57.989Z,2.90
2022-09-02T20:34:42.954Z,2.67
2022-09-02T20:37:28.093Z,2.38
2022-09-02T20:40:11.373Z,2.92
2022-09-02T20:43:00.606Z,2.70
2022-09-02T20:45:29.686Z,3.20
2022-09-02T20:48:12.939Z,3.13
2022-09-02T20:50:39.638Z,2.78
2022-09-02T20:53:21.711Z,2.92
2022-09-02T20:55:54.724Z,3.10
2022-09-02T20:58:45.513Z,2.78
2022-09-02T21:01:17.564Z,3.22
2022-09-02T21:03:51.172Z,3.38
2022-09-02T21:06:19.044Z,3.20
2022-09-02T21:08:57.115Z,2.97
2022-09-02T21:11:29.364Z,2.85
2022-09-02T21:13:59.491Z,2.60
2022-09-02T21:16:37.908Z,3.20
2022-09-02T21:19:23.314Z,3.00
2022-09-02T21:22:01.966Z,3.38
2022-09-02T21:24:51.923Z,3.08
2022-09-02T21:27:24.863Z,3.10
2022-09-02T21:30:02.766Z,3.22
2022-09-02T21:32:46.893Z,3.28
2022-09-02T21:35:17.345Z,3.17
2022-09-02T21:37:44.826Z,3.50
2022-09-02T21:40:18.073Z,3.10
2022-09-02T21:42:47.517Z,3.65
2022-09-02T21:45:14.139Z,2.78
2022-09-02T21:48:00.487Z,3.25
2022-09-02T21:50:33.734Z,3.00
2022-09-02T21:53:00.411Z,3.20
2022-09-02T21:55:27.017Z,3.03
2022-09-02T21:58:10.255Z,3.30
2022-09-02T22:00:39.094Z,3.00
2022-09-02T22:03:23.715Z,3.33
2022-09-02T22:05:55.414Z,3.28
2022-09-02T22:08:43.217Z,3.50
2022-09-02T22:11:20.097Z,3.28
2022-09-02T22:13:48.271Z,3.58
2022-09-02T22:16:35.255Z,3.25
2022-09-02T22:19:05.253Z,3.28
2022-09-02T22:21:49.194Z,3.35
2022-09-02T22:24:16.765Z,3.08
2022-09-02T22:26:57.686Z,3.58
2022-09-02T22:29:44.090Z,3.13
2022-09-02T22:32:12.371Z,3.25
2022-09-02T22:34:45.614Z,3.40
2022-09-02T22:37:18.715Z,3.20
2022-09-02T22:39:50.488Z,3.22
2022-09-02T22:42:18.345Z,3.40
2022-09-02T22:45:17.981Z,3.40
2022-09-02T22:48:05.669Z,3.10
2022-09-02T22:50:55.195Z,3.30
2022-09-02T22:53:21.866Z,2.78
2022-09-02T22:55:59.131Z,3.47
2022-09-02T22:58:44.400Z,3.30
2022-09-02T23:01:24.234Z,3.15
2022-09-02T23:03:51.002Z,3.70
2022-09-02T23:06:24.107Z,3.38
2022-09-02T23:08:50.834Z,3.55
2022-09-02T23:11:36.110Z,3.42
2022-09-02T23:14:09.097Z,3.22
2022-09-02T23:16:43.123Z,3.53
2022-09-02T23:19:12.869Z,3.33
2022-09-02T23:21:47.169Z,3.55
2022-09-02T23:24:19.885Z,3.45
2022-09-02T23:26:46.466Z,3.70
2022-09-02T23:29:17.931Z,3.80
2022-09-02T23:31:50.684Z,3.65
2022-09-02T23:34:31.752Z,3.78
2022-09-02T23:37:04.794Z,3.35
2022-09-02T23:39:37.563Z,3.55
2022-09-02T23:42:04.612Z,3.40
2022-09-02T23:44:31.390Z,3.47
2022-09-02T23:46:58.024Z,3.70
2022-09-02T23:49:46.243Z,3.30
2022-09-02T23:52:15.605Z,4.03
2022-09-02T23:54:59.606Z,3.42
2022-09-02T23:57:29.785Z,3.80
